Aérodrome :
LOGIN :

S'inscrire | Disclaimer

   EN    FR    IT 

 










Légende :    VFR   VFR Marginal   IFR   IFR Intensif   IFR Très Intensif
Visi : 
Plafond : 
>= 8 km
>= 3000ft
5 à 8 km
1000 à 3000 ft
1500m à 5 km
500 à 1000 ft
800 à 1500m
200 à 500 ft
< 800m
< 200 ft
Symboles :   Orages  Brouillard  Fortes neiges  Fortes précipitations  Vent > 20 kt
SIGMETs :   Divers  Orages  Givrage  Turbulence  Onde Orograph.  Cendres Volcan.






- Altitude de l'aérodrome : 1989 ft
- Code IATA : KLV


LKKV - Karlovy Vary

DERNIER METAR :
  • 171430Z 08009KT 9999 SCT013 09/08 Q1005

METARs EXPIRÉS :
  • 171400Z 08010KT 8000 2700N BCFG SCT005 BKN015 09/08 Q1005
  • 171330Z 07008KT 9000 2500N BCFG FEW002 BKN013 BKN020 09/08 Q1005
  • 171312Z 07007KT 8000 2500N BCFG SCT011 BKN013 09/08 Q1005 RMK REG QNH 1002
  • 171300Z 09009KT 9999 2600N BCFG FEW002 BKN011 09/08 Q1005
  • 171248Z 09010KT 060V120 9000 3000N BCFG BKN011 09/08 Q1005 RMK REG QNH 1002
  • 171230Z 09009KT 8000 3000N BCFG BKN009 BKN015 09/08 Q1006
  • 171200Z 10010KT 8000 2400N BCFG FEW002 BKN009 OVC015 09/08 Q1006

TAF TAF LKKV
Valide du 17 à 12h jusqu'au 18 à 18h UTC


171100Z 1712/1818 09008KT 7000 BKN015
TEMPO 1712/1714 3000 BR BKN009
TEMPO 1714/1721 9999 SCT030
BECMG 1721/1722 5000 BR
TEMPO 1717/1808 12010G20KT
TEMPO 1802/1812 2500 RA BR BKN007
BECMG 1814/1816 CAVOK



MET'MAP, la Météo Aéronautique d'un coup d'oeil ! - Copyright ORBIFLY Décembre 2007 - Disclaimer

ORBIFLY MET'MAP TEAM :

Programmation & Développement : Alexandra Zaïnal
Conception & Développement : Baudouin d'Aumeries
Co-Programmation & Développement : Marc-Olivier Méhu
Soutien technique & logistique : Manuel Goepfert

Contact : metmap@orbifly.com




SOURCES & CREDITS :

   NOAA